createdAt,value
2022-10-17T00:00:17.174Z,91
2022-10-17T00:05:17.163Z,91
2022-10-17T00:10:17.282Z,91
2022-10-17T00:15:17.195Z,91
2022-10-17T00:20:17.320Z,91
2022-10-17T00:25:17.414Z,91
2022-10-17T00:30:17.433Z,91
2022-10-17T00:35:17.419Z,91
2022-10-17T00:40:17.297Z,91
2022-10-17T00:45:17.288Z,91
2022-10-17T00:50:17.343Z,91
2022-10-17T00:55:17.398Z,91
2022-10-17T01:00:17.386Z,90
2022-10-17T01:05:17.423Z,90
2022-10-17T01:10:17.463Z,91
2022-10-17T01:15:17.707Z,91
2022-10-17T01:20:17.337Z,91
2022-10-17T01:25:15.354Z,91
2022-10-17T01:30:15.420Z,91
2022-10-17T01:35:15.479Z,91
2022-10-17T01:40:15.459Z,92
2022-10-17T01:45:15.524Z,92
2022-10-17T01:50:15.391Z,92
2022-10-17T01:55:15.446Z,92
2022-10-17T02:00:15.375Z,92
2022-10-17T02:05:15.525Z,92
2022-10-17T02:10:15.588Z,93
2022-10-17T02:15:15.512Z,93
2022-10-17T02:20:15.443Z,93
2022-10-17T02:25:15.511Z,93
2022-10-17T02:30:15.513Z,93
2022-10-17T02:35:15.535Z,92
2022-10-17T02:40:15.535Z,93
2022-10-17T02:45:15.815Z,93
2022-10-17T02:50:15.579Z,93
2022-10-17T02:55:15.554Z,94
2022-10-17T03:00:15.713Z,93
2022-10-17T03:05:15.601Z,93
2022-10-17T03:10:15.629Z,93
2022-10-17T03:15:15.563Z,94
2022-10-17T03:20:15.660Z,94
2022-10-17T03:25:15.604Z,94
2022-10-17T03:30:15.579Z,94
2022-10-17T03:35:15.730Z,93
2022-10-17T03:40:15.624Z,94
2022-10-17T03:45:15.801Z,93
2022-10-17T03:50:15.651Z,94
2022-10-17T03:55:15.730Z,94
2022-10-17T04:00:16.868Z,94
2022-10-17T04:05:16.667Z,94
2022-10-17T04:10:16.765Z,95
2022-10-17T04:15:16.696Z,94
2022-10-17T04:20:16.687Z,94
2022-10-17T04:25:16.713Z,94
2022-10-17T04:30:16.715Z,94
2022-10-17T04:35:16.705Z,94
2022-10-17T04:40:16.823Z,94
2022-10-17T04:45:16.795Z,94
2022-10-17T04:50:16.767Z,94
2022-10-17T04:55:16.777Z,94
2022-10-17T05:00:16.838Z,95
2022-10-17T05:05:16.797Z,95
2022-10-17T05:10:16.937Z,95
2022-10-17T05:15:16.855Z,95
2022-10-17T05:20:16.845Z,95
2022-10-17T05:25:17.020Z,95
2022-10-17T05:30:16.836Z,95
2022-10-17T05:35:16.896Z,95
2022-10-17T05:40:16.922Z,95
2022-10-17T05:45:16.866Z,95
2022-10-17T05:50:17.091Z,95
2022-10-17T05:55:16.956Z,96
2022-10-17T06:00:16.922Z,96
2022-10-17T06:05:17.208Z,96
2022-10-17T06:10:16.932Z,96
2022-10-17T06:15:17.007Z,96
2022-10-17T06:20:17.074Z,96
2022-10-17T06:25:16.971Z,96
2022-10-17T06:30:17.063Z,96
2022-10-17T06:35:17.025Z,96
2022-10-17T06:40:17.034Z,96
2022-10-17T06:45:17.073Z,96
2022-10-17T06:50:17.016Z,96
2022-10-17T06:55:21.366Z,96
2022-10-17T07:00:17.058Z,96
2022-10-17T07:05:17.037Z,96
2022-10-17T07:10:17.214Z,96
2022-10-17T07:15:17.057Z,96
2022-10-17T07:20:17.113Z,96
2022-10-17T07:25:17.156Z,96
2022-10-17T07:30:17.165Z,96
2022-10-17T07:35:17.310Z,96
2022-10-17T07:40:17.398Z,96
2022-10-17T07:45:17.141Z,96
2022-10-17T07:50:15.365Z,96
2022-10-17T07:55:17.152Z,96
2022-10-17T08:00:17.156Z,96
2022-10-17T08:05:17.215Z,96
2022-10-17T08:10:17.276Z,96
2022-10-17T08:15:17.146Z,96
2022-10-17T08:20:17.242Z,96
2022-10-17T08:25:17.265Z,96
2022-10-17T08:30:17.203Z,96
2022-10-17T08:35:17.355Z,96
2022-10-17T08:40:17.242Z,96
2022-10-17T08:45:17.406Z,96
2022-10-17T08:50:17.401Z,97
2022-10-17T08:55:17.367Z,96
2022-10-17T09:00:17.259Z,96
2022-10-17T09:05:18.077Z,96
2022-10-17T09:10:17.363Z,96
2022-10-17T09:15:17.321Z,96
2022-10-17T09:20:17.396Z,96
2022-10-17T09:25:17.337Z,96
2022-10-17T09:30:40.069Z,96
2022-10-17T09:35:17.368Z,96
2022-10-17T09:40:17.403Z,96
2022-10-17T09:45:15.340Z,96
2022-10-17T09:50:15.426Z,97
2022-10-17T09:55:18.495Z,97
2022-10-17T10:00:15.497Z,96
2022-10-17T10:05:15.486Z,96
2022-10-17T10:10:15.666Z,96
2022-10-17T10:15:15.479Z,96
2022-10-17T10:20:15.510Z,96
2022-10-17T10:25:15.486Z,96
2022-10-17T10:30:15.623Z,96
2022-10-17T10:35:15.573Z,96
2022-10-17T10:40:15.506Z,96
2022-10-17T10:45:29.284Z,96
2022-10-17T10:50:15.445Z,96
2022-10-17T10:55:15.462Z,96
2022-10-17T11:00:15.558Z,96
2022-10-17T11:05:15.525Z,96
2022-10-17T11:10:15.531Z,96
2022-10-17T11:15:15.503Z,97
2022-10-17T11:20:15.574Z,97
2022-10-17T11:25:15.543Z,97
2022-10-17T11:30:15.657Z,97
2022-10-17T11:35:15.556Z,97
2022-10-17T11:40:18.144Z,97
2022-10-17T11:45:15.732Z,97
2022-10-17T11:55:15.531Z,97
2022-10-17T12:00:15.623Z,97
2022-10-17T12:05:15.808Z,97
2022-10-17T12:10:15.712Z,97
2022-10-17T12:15:15.691Z,97
2022-10-17T12:20:15.660Z,97
2022-10-17T12:25:15.634Z,97
2022-10-17T12:30:15.659Z,97
2022-10-17T12:35:15.763Z,97
2022-10-17T12:40:15.718Z,97
2022-10-17T12:45:15.850Z,97
2022-10-17T12:50:15.752Z,97
2022-10-17T12:55:15.792Z,97
2022-10-17T13:00:15.775Z,97
2022-10-17T13:05:15.838Z,97
2022-10-17T13:10:15.901Z,97
2022-10-17T13:15:16.064Z,97
2022-10-17T13:20:15.884Z,97
2022-10-17T13:25:15.896Z,97
2022-10-17T13:30:16.001Z,97
2022-10-17T13:35:15.861Z,97
2022-10-17T13:40:40.409Z,97
2022-10-17T13:45:15.851Z,97
2022-10-17T13:50:39.567Z,97
2022-10-17T13:55:17.501Z,97
2022-10-17T14:00:16.002Z,97
2022-10-17T14:05:17.864Z,97
2022-10-17T14:10:15.919Z,97
2022-10-17T14:15:16.004Z,97
2022-10-17T14:20:57.123Z,98
2022-10-17T14:21:56.822Z,98
2022-10-17T14:25:15.920Z,97
2022-10-17T14:30:16.477Z,97
2022-10-17T14:35:37.357Z,97
2022-10-17T14:40:15.962Z,97
2022-10-17T14:45:18.178Z,97
2022-10-17T14:50:15.969Z,97
2022-10-17T14:55:15.953Z,97
2022-10-17T15:00:16.066Z,97
2022-10-17T15:05:16.030Z,97
2022-10-17T15:10:15.996Z,97
2022-10-17T15:15:16.055Z,97
2022-10-17T15:20:16.114Z,97
2022-10-17T15:25:16.342Z,97
2022-10-17T15:30:20.707Z,97
2022-10-17T15:35:16.065Z,97
2022-10-17T15:40:16.209Z,97
2022-10-17T15:45:16.050Z,97
2022-10-17T15:50:16.077Z,97
2022-10-17T15:55:15.997Z,97
2022-10-17T16:00:16.741Z,97
2022-10-17T16:05:16.189Z,97
2022-10-17T16:10:16.130Z,97
2022-10-17T16:15:16.147Z,97
2022-10-17T16:20:16.123Z,97
2022-10-17T16:25:16.218Z,97
2022-10-17T16:30:16.263Z,97
2022-10-17T16:35:16.217Z,97
2022-10-17T16:40:16.229Z,97
2022-10-17T16:45:16.236Z,97
2022-10-17T16:50:16.447Z,96
2022-10-17T16:55:16.183Z,96
2022-10-17T17:00:16.392Z,96
2022-10-17T17:05:16.479Z,95
2022-10-17T17:10:16.265Z,95
2022-10-17T17:15:16.451Z,94
2022-10-17T17:20:16.284Z,94
2022-10-17T17:25:16.304Z,94
2022-10-17T17:30:16.339Z,94
2022-10-17T17:35:16.268Z,93
2022-10-17T17:40:16.379Z,93
2022-10-17T17:45:16.362Z,93
2022-10-17T17:50:16.459Z,92
2022-10-17T17:55:16.269Z,92
2022-10-17T18:00:16.436Z,91
2022-10-17T18:05:16.376Z,91
2022-10-17T18:10:16.356Z,91
2022-10-17T18:15:16.480Z,91
2022-10-17T18:20:16.349Z,90
2022-10-17T18:25:16.455Z,91
2022-10-17T18:30:16.402Z,91
2022-10-17T18:35:16.399Z,91
2022-10-17T18:40:16.456Z,91
2022-10-17T18:45:16.568Z,91
2022-10-17T18:50:16.561Z,91
2022-10-17T18:55:16.483Z,92
2022-10-17T19:00:16.483Z,92
2022-10-17T19:05:16.557Z,92
2022-10-17T19:10:16.579Z,92
2022-10-17T19:15:16.456Z,92
2022-10-17T19:20:16.597Z,92
2022-10-17T19:25:16.847Z,92
2022-10-17T19:30:16.568Z,92
2022-10-17T19:35:16.516Z,93
2022-10-17T19:40:16.591Z,93
2022-10-17T19:45:16.588Z,93
2022-10-17T19:50:16.645Z,93
2022-10-17T19:55:16.544Z,93
2022-10-17T20:00:16.679Z,93
2022-10-17T20:05:19.248Z,93
2022-10-17T20:10:16.643Z,94
2022-10-17T20:15:16.774Z,94
2022-10-17T20:20:16.857Z,94
2022-10-17T20:25:16.830Z,94
2022-10-17T20:30:16.804Z,94
2022-10-17T20:35:16.631Z,94
2022-10-17T20:40:34.236Z,94
2022-10-17T20:45:16.686Z,94
2022-10-17T20:50:16.831Z,94
2022-10-17T20:55:16.994Z,95
2022-10-17T21:00:16.761Z,95
2022-10-17T21:05:16.809Z,95
2022-10-17T21:10:34.807Z,95
2022-10-17T21:15:16.718Z,95
2022-10-17T21:20:16.716Z,95
2022-10-17T21:25:16.801Z,95
2022-10-17T21:30:16.824Z,95
2022-10-17T21:35:16.784Z,95
2022-10-17T21:40:16.893Z,95
2022-10-17T21:45:25.285Z,95
2022-10-17T21:50:16.787Z,96
2022-10-17T21:55:16.722Z,96
2022-10-17T22:00:16.806Z,95
2022-10-17T22:05:17.046Z,96
2022-10-17T22:10:16.900Z,96
2022-10-17T22:15:16.897Z,96
2022-10-17T22:20:16.874Z,96
2022-10-17T22:25:17.031Z,96
2022-10-17T22:30:16.879Z,96
2022-10-17T22:35:17.065Z,96
2022-10-17T22:40:16.956Z,96
2022-10-17T22:45:17.065Z,96
2022-10-17T22:50:17.074Z,96
2022-10-17T22:55:17.189Z,96
2022-10-17T23:00:17.035Z,96
2022-10-17T23:05:17.026Z,96
2022-10-17T23:10:17.197Z,96
2022-10-17T23:15:17.158Z,96
2022-10-17T23:20:16.988Z,96
2022-10-17T23:25:17.139Z,96
2022-10-17T23:30:17.053Z,96
2022-10-17T23:35:17.045Z,96
2022-10-17T23:40:17.085Z,96
2022-10-17T23:45:17.065Z,96
2022-10-17T23:50:17.131Z,96
2022-10-17T23:55:17.181Z,96
